Terminal Aerodrome Forecast
Issued by NWS

Home | Current Version | Previous Version | Text Only | Print | Product List | Glossary On
Versions: 1 2 3 4 5 6 7 8 9 10 11 12 13 14 15 16 17 18 19 20 21 22 23 24 25 26 27 28 29 30 31 32 33 34 35 36
000
FTUS45 KPSR 032056 AAB
TAFPHX
TAF AMD
KPHX 032056Z 0321/0418 18018G30KT 4SM BLDU SCT110 BKN140
     FM032200 18008KT 6SM HZ VCSH FEW100 SCT140 BKN220
     FM032300 17010KT P6SM VCTS SCT100CB BKN150 BKN200
     FM040400 14008KT P6SM VCSH BKN100 BKN250=

USA.gov is the U.S. government's official web portal to all federal, state and local government web resources and services.